EDT,Max TemperatureF,Mean TemperatureF,Min TemperatureF,Max Dew PointF,MeanDew PointF,Min DewpointF,Max Humidity, Mean Humidity, Min Humidity, Max Sea Level PressureIn, Mean Sea Level PressureIn, Min Sea Level PressureIn, Max VisibilityMiles, Mean VisibilityMiles, Min VisibilityMiles, Max Wind SpeedMPH, Mean Wind SpeedMPH, Max Gust SpeedMPH,PrecipitationIn, CloudCover, Events, WindDirDegrees
2013-10-1,80,63,46,63,55,46,100,82,44,30.15,30.10,30.05,10,7,1,6,1,,0.00,1,,295
2013-10-2,82,66,50,63,57,50,100,80,39,30.17,30.12,30.08,10,6,0,7,0,,0.00,0,Fog,290
2013-10-3,82,68,53,64,58,54,100,78,39,30.17,30.13,30.09,10,8,1,9,1,,0.00,2,,220
2013-10-4,86,70,55,66,61,55,100,81,40,30.17,30.13,30.08,10,8,0,5,1,,0.00,0,Fog,252
2013-10-5,87,71,55,66,62,55,100,79,40,30.15,30.11,30.06,10,7,0,7,1,,0.00,1,Fog,210
2013-10-6,82,70,57,70,64,57,100,82,51,30.10,30.04,29.97,10,8,1,13,3,18,0.00,3,,179
2013-10-7,71,66,60,70,66,52,100,93,72,30.05,29.93,29.87,10,9,2,14,7,22,1.19,8,Rain,201
2013-10-8,62,58,55,54,47,45,82,67,55,30.25,30.18,30.05,10,10,10,20,9,28,0.00,4,,31
2013-10-9,62,56,51,54,50,46,100,82,68,30.23,30.20,30.14,10,10,5,16,8,24,0.04,6,Rain,11
2013-10-10,59,55,51,59,55,52,100,100,100,30.14,30.04,29.97,10,7,3,13,8,21,0.22,8,Rain,351
2013-10-11,68,62,57,63,59,57,100,95,78,30.00,29.97,29.94,10,9,2,8,4,,0.01,8,Rain-Thunderstorm,351
2013-10-12,64,62,59,64,62,59,100,98,94,30.13,30.05,29.99,10,6,2,7,4,,0.03,8,Rain,359
2013-10-13,64,62,59,63,61,59,100,99,94,30.26,30.20,30.12,10,7,2,10,6,17,0.04,8,Rain,17
2013-10-14,62,58,53,61,59,54,100,98,88,30.29,30.25,30.22,10,7,2,10,6,18,0.00,7,,22
2013-10-15,69,58,46,61,54,46,100,84,56,30.25,30.17,30.10,10,8,0,8,2,16,0.00,4,Fog,20
2013-10-16,69,64,59,61,60,59,100,91,68,30.10,30.04,29.99,10,10,7,6,0,,0.00,6,,175
2013-10-17,69,64,59,64,61,59,100,92,68,30.00,29.93,29.87,10,10,4,9,2,16,0.03,5,Rain,227
2013-10-18,68,58,48,64,50,43,100,79,43,30.08,30.01,29.91,10,10,4,12,2,,0.00,3,,352
2013-10-19,64,57,50,63,56,50,100,99,94,30.01,29.94,29.86,10,7,0,5,0,,0.03,6,Rain,219
2013-10-20,62,50,37,55,42,36,100,79,39,30.15,30.07,29.94,10,8,1,8,1,,0.00,0,,15
2013-10-21,64,48,32,48,41,32,100,82,42,30.19,30.12,30.02,10,9,2,6,0,,0.00,0,,182
2013-10-22,68,58,48,57,52,46,100,86,46,30.02,29.93,29.82,10,9,0,7,1,,0.00,3,Fog,217
2013-10-23,64,53,42,57,44,32,100,73,32,30.02,29.80,29.72,10,8,0,14,3,25,0.22,4,Fog-Rain-Thunderstorm,308
2013-10-24,55,44,32,36,33,30,100,67,41,30.20,30.12,30.02,10,10,10,10,2,18,0.00,3,,286
2013-10-25,53,42,30,36,31,27,100,70,38,30.38,30.30,30.21,10,10,10,12,2,22,0.00,2,,339
2013-10-26,57,42,26,36,31,27,100,70,33,30.38,30.23,30.07,10,10,10,14,2,22,0.00,1,,227
2013-10-27,64,50,37,43,37,34,100,63,32,30.15,30.10,30.06,10,10,10,10,3,20,0.00,1,,283
2013-10-28,68,52,37,52,45,37,100,81,40,30.28,30.22,30.14,10,9,4,6,0,,0.00,4,,200
2013-10-29,69,58,48,54,51,48,100,81,49,30.36,30.31,30.27,10,9,1,6,1,,0.00,3,,30
2013-10-30,73,62,50,57,54,50,100,86,53,30.31,30.26,30.18,10,8,2,10,2,17,0.00,4,,206
2013-10-31,71,61,51,61,55,52,100,78,57,30.21,30.10,29.92,10,9,2,13,4,21,0.00,1,,198